sensor_id;sensor_type;location;lat;lon;timestamp;pressure;altitude;pressure_sealevel;temperature;humidity
75553;BME280;64136;53.118;17.996;2023-04-01T00:00:58;98968.38;;;10.88;78.80
75553;BME280;64136;53.118;17.996;2023-04-01T00:03:25;98968.98;;;10.81;79.13
75553;BME280;64136;53.118;17.996;2023-04-01T00:05:54;98968.30;;;10.73;79.34
75553;BME280;64136;53.118;17.996;2023-04-01T00:08:21;98971.81;;;10.66;79.54
75553;BME280;64136;53.118;17.996;2023-04-01T00:10:48;98969.89;;;10.58;79.72
75553;BME280;64136;53.118;17.996;2023-04-01T00:13:14;98968.73;;;10.59;79.61
75553;BME280;64136;53.118;17.996;2023-04-01T00:15:42;98969.13;;;10.62;79.41
75553;BME280;64136;53.118;17.996;2023-04-01T00:18:09;98965.85;;;10.67;79.47
75553;BME280;64136;53.118;17.996;2023-04-01T00:20:35;98965.77;;;10.72;79.24
75553;BME280;64136;53.118;17.996;2023-04-01T00:23:01;98963.58;;;10.75;79.05
75553;BME280;64136;53.118;17.996;2023-04-01T00:25:28;98962.81;;;10.78;79.17
75553;BME280;64136;53.118;17.996;2023-04-01T00:27:54;98962.70;;;10.80;79.12
75553;BME280;64136;53.118;17.996;2023-04-01T00:30:21;98962.45;;;10.81;78.93
75553;BME280;64136;53.118;17.996;2023-04-01T00:32:51;98960.46;;;10.88;78.95
75553;BME280;64136;53.118;17.996;2023-04-01T00:35:18;98956.23;;;10.91;78.99
75553;BME280;64136;53.118;17.996;2023-04-01T00:37:45;98954.27;;;10.88;79.04
75553;BME280;64136;53.118;17.996;2023-04-01T00:42:48;98957.63;;;10.74;79.38
75553;BME280;64136;53.118;17.996;2023-04-01T00:45:32;98959.24;;;10.74;79.86
75553;BME280;64136;53.118;17.996;2023-04-01T00:48:05;98957.04;;;10.65;81.60
75553;BME280;64136;53.118;17.996;2023-04-01T00:50:34;98952.23;;;10.52;82.60
75553;BME280;64136;53.118;17.996;2023-04-01T00:53:02;98951.49;;;10.42;82.76
75553;BME280;64136;53.118;17.996;2023-04-01T01:00:24;98954.52;;;10.30;83.04
75553;BME280;64136;53.118;17.996;2023-04-01T01:05:23;98953.01;;;10.33;82.20
75553;BME280;64136;53.118;17.996;2023-04-01T01:18:34;98941.16;;;10.41;82.29
75553;BME280;64136;53.118;17.996;2023-04-01T01:29:47;98944.83;;;10.30;83.74
75553;BME280;64136;53.118;17.996;2023-04-01T01:35:24;98946.16;;;10.27;83.95
75553;BME280;64136;53.118;17.996;2023-04-01T01:38:00;98948.60;;;10.15;84.49
75553;BME280;64136;53.118;17.996;2023-04-01T01:40:31;98949.61;;;10.04;84.27
75553;BME280;64136;53.118;17.996;2023-04-01T01:43:03;98947.76;;;9.97;84.10
75553;BME280;64136;53.118;17.996;2023-04-01T01:45:33;98950.23;;;9.83;84.53
75553;BME280;64136;53.118;17.996;2023-04-01T01:48:02;98946.35;;;9.77;84.55
75553;BME280;64136;53.118;17.996;2023-04-01T01:50:31;98944.33;;;9.66;84.93
75553;BME280;64136;53.118;17.996;2023-04-01T01:53:07;98945.55;;;9.64;84.82
75553;BME280;64136;53.118;17.996;2023-04-01T01:55:39;98945.40;;;9.64;84.82
75553;BME280;64136;53.118;17.996;2023-04-01T01:58:22;98945.65;;;9.63;84.42
75553;BME280;64136;53.118;17.996;2023-04-01T02:01:01;98949.14;;;9.63;84.25
75553;BME280;64136;53.118;17.996;2023-04-01T02:03:31;98947.23;;;9.61;84.41
75553;BME280;64136;53.118;17.996;2023-04-01T02:06:00;98947.58;;;9.61;84.08
75553;BME280;64136;53.118;17.996;2023-04-01T02:08:31;98947.13;;;9.58;84.24
75553;BME280;64136;53.118;17.996;2023-04-01T02:11:05;98945.41;;;9.56;84.35
75553;BME280;64136;53.118;17.996;2023-04-01T02:13:40;98947.61;;;9.55;84.18
75553;BME280;64136;53.118;17.996;2023-04-01T02:16:14;98948.23;;;9.56;83.82
75553;BME280;64136;53.118;17.996;2023-04-01T02:18:43;98948.83;;;9.59;83.68
75553;BME280;64136;53.118;17.996;2023-04-01T02:21:11;98947.08;;;9.61;83.51
75553;BME280;64136;53.118;17.996;2023-04-01T02:23:38;98949.39;;;9.62;83.47
75553;BME280;64136;53.118;17.996;2023-04-01T02:26:07;98949.45;;;9.64;83.63
75553;BME280;64136;53.118;17.996;2023-04-01T02:31:03;98951.16;;;9.64;83.20
75553;BME280;64136;53.118;17.996;2023-04-01T02:33:30;98952.94;;;9.62;83.10
75553;BME280;64136;53.118;17.996;2023-04-01T02:35:58;98953.54;;;9.59;83.44
75553;BME280;64136;53.118;17.996;2023-04-01T02:38:25;98956.66;;;9.56;83.56
75553;BME280;64136;53.118;17.996;2023-04-01T02:40:58;98959.05;;;9.53;83.64
75553;BME280;64136;53.118;17.996;2023-04-01T02:43:27;98957.96;;;9.49;83.73
75553;BME280;64136;53.118;17.996;2023-04-01T02:45:54;98959.85;;;9.43;83.67
75553;BME280;64136;53.118;17.996;2023-04-01T02:48:20;98962.04;;;9.39;83.92
75553;BME280;64136;53.118;17.996;2023-04-01T02:50:47;98964.69;;;9.39;83.63
75553;BME280;64136;53.118;17.996;2023-04-01T02:53:14;98968.35;;;9.39;83.74
75553;BME280;64136;53.118;17.996;2023-04-01T02:55:40;98972.01;;;9.40;84.12
75553;BME280;64136;53.118;17.996;2023-04-01T02:58:07;98972.93;;;9.41;83.66
75553;BME280;64136;53.118;17.996;2023-04-01T03:00:33;98978.14;;;9.38;83.69
75553;BME280;64136;53.118;17.996;2023-04-01T03:03:00;98976.80;;;9.34;83.75
75553;BME280;64136;53.118;17.996;2023-04-01T03:05:26;98977.55;;;9.31;83.49
75553;BME280;64136;53.118;17.996;2023-04-01T03:07:52;98982.33;;;9.33;83.12
75553;BME280;64136;53.118;17.996;2023-04-01T03:10:19;98979.66;;;9.35;83.19
75553;BME280;64136;53.118;17.996;2023-04-01T03:12:46;98981.67;;;9.35;83.40
75553;BME280;64136;53.118;17.996;2023-04-01T03:15:13;98984.73;;;9.36;83.42
75553;BME280;64136;53.118;17.996;2023-04-01T03:17:42;98983.42;;;9.33;83.61
75553;BME280;64136;53.118;17.996;2023-04-01T03:20:29;98985.17;;;9.33;83.72
75553;BME280;64136;53.118;17.996;2023-04-01T03:22:56;98988.73;;;9.18;84.27
75553;BME280;64136;53.118;17.996;2023-04-01T03:25:22;98990.86;;;9.20;83.99
75553;BME280;64136;53.118;17.996;2023-04-01T03:27:48;98987.05;;;9.13;84.26
75553;BME280;64136;53.118;17.996;2023-04-01T03:30:15;98987.11;;;9.06;84.40
75553;BME280;64136;53.118;17.996;2023-04-01T03:35:12;98994.73;;;9.01;84.42
75553;BME280;64136;53.118;17.996;2023-04-01T03:37:38;98999.33;;;8.99;84.41
75553;BME280;64136;53.118;17.996;2023-04-01T03:40:05;98999.69;;;8.91;84.14
75553;BME280;64136;53.118;17.996;2023-04-01T03:42:32;99002.06;;;8.90;84.11
75553;BME280;64136;53.118;17.996;2023-04-01T03:44:58;99002.02;;;8.92;84.06
75553;BME280;64136;53.118;17.996;2023-04-01T03:47:25;99004.76;;;8.89;84.14
75553;BME280;64136;53.118;17.996;2023-04-01T03:49:51;99004.44;;;8.91;84.20
75553;BME280;64136;53.118;17.996;2023-04-01T03:52:17;99010.59;;;8.80;83.95
75553;BME280;64136;53.118;17.996;2023-04-01T03:54:43;99016.95;;;8.74;84.18
75553;BME280;64136;53.118;17.996;2023-04-01T03:57:10;99016.41;;;8.66;84.05
75553;BME280;64136;53.118;17.996;2023-04-01T03:59:37;99019.10;;;8.54;84.41
75553;BME280;64136;53.118;17.996;2023-04-01T04:02:04;99023.05;;;8.56;84.39
75553;BME280;64136;53.118;17.996;2023-04-01T04:04:31;99025.36;;;8.53;84.43
75553;BME280;64136;53.118;17.996;2023-04-01T04:06:58;99025.11;;;8.46;84.73
75553;BME280;64136;53.118;17.996;2023-04-01T04:09:24;99031.53;;;8.41;84.86
75553;BME280;64136;53.118;17.996;2023-04-01T04:11:51;99033.30;;;8.41;84.57
75553;BME280;64136;53.118;17.996;2023-04-01T04:14:17;99039.61;;;8.41;84.79
75553;BME280;64136;53.118;17.996;2023-04-01T04:16:44;99038.89;;;8.46;84.64
75553;BME280;64136;53.118;17.996;2023-04-01T04:19:11;99042.98;;;8.47;84.55
75553;BME280;64136;53.118;17.996;2023-04-01T04:21:39;99044.41;;;8.43;84.78
75553;BME280;64136;53.118;17.996;2023-04-01T04:24:06;99048.22;;;8.42;84.79
75553;BME280;64136;53.118;17.996;2023-04-01T04:26:52;99047.73;;;8.43;84.95
75553;BME280;64136;53.118;17.996;2023-04-01T04:29:18;99047.95;;;8.41;85.18
75553;BME280;64136;53.118;17.996;2023-04-01T04:31:45;99051.73;;;8.40;85.08
75553;BME280;64136;53.118;17.996;2023-04-01T04:36:38;99056.05;;;8.36;84.89
75553;BME280;64136;53.118;17.996;2023-04-01T04:39:04;99059.92;;;8.37;84.74
75553;BME280;64136;53.118;17.996;2023-04-01T04:41:32;99064.18;;;8.36;84.41
75553;BME280;64136;53.118;17.996;2023-04-01T04:43:58;99065.58;;;8.25;84.56
75553;BME280;64136;53.118;17.996;2023-04-01T04:46:24;99068.52;;;8.12;84.57
75553;BME280;64136;53.118;17.996;2023-04-01T04:48:56;99070.04;;;8.07;84.61
75553;BME280;64136;53.118;17.996;2023-04-01T04:51:22;99068.34;;;7.97;84.70
75553;BME280;64136;53.118;17.996;2023-04-01T04:53:49;99073.79;;;7.92;84.99
75553;BME280;64136;53.118;17.996;2023-04-01T04:56:22;99078.94;;;7.96;84.76
75553;BME280;64136;53.118;17.996;2023-04-01T04:58:57;99077.23;;;7.80;85.25
75553;BME280;64136;53.118;17.996;2023-04-01T05:01:26;99081.83;;;7.78;85.42
75553;BME280;64136;53.118;17.996;2023-04-01T05:03:53;99085.58;;;7.82;84.91
75553;BME280;64136;53.118;17.996;2023-04-01T05:06:20;99083.11;;;7.72;85.02
75553;BME280;64136;53.118;17.996;2023-04-01T05:08:47;99090.32;;;7.68;85.02
75553;BME280;64136;53.118;17.996;2023-04-01T05:11:17;99089.03;;;7.64;85.25
75553;BME280;64136;53.118;17.996;2023-04-01T05:13:45;99091.98;;;7.67;85.03
75553;BME280;64136;53.118;17.996;2023-04-01T05:16:15;99095.05;;;7.68;84.98
75553;BME280;64136;53.118;17.996;2023-04-01T05:18:42;99099.73;;;7.65;85.10
75553;BME280;64136;53.118;17.996;2023-04-01T05:21:10;99103.50;;;7.64;85.14
75553;BME280;64136;53.118;17.996;2023-04-01T05:23:38;99105.38;;;7.67;85.08
75553;BME280;64136;53.118;17.996;2023-04-01T05:26:10;99108.05;;;7.72;84.92
75553;BME280;64136;53.118;17.996;2023-04-01T05:28:38;99113.74;;;7.73;85.03
75553;BME280;64136;53.118;17.996;2023-04-01T05:31:05;99113.79;;;7.65;85.16
75553;BME280;64136;53.118;17.996;2023-04-01T05:33:37;99117.00;;;7.64;85.28
75553;BME280;64136;53.118;17.996;2023-04-01T05:36:09;99119.09;;;7.60;85.54
75553;BME280;64136;53.118;17.996;2023-04-01T05:41:02;99117.64;;;7.40;85.25
75553;BME280;64136;53.118;17.996;2023-04-01T05:43:29;99118.35;;;7.26;85.46
75553;BME280;64136;53.118;17.996;2023-04-01T05:45:57;99122.36;;;7.17;85.61
75553;BME280;64136;53.118;17.996;2023-04-01T05:48:27;99127.79;;;7.22;85.22
75553;BME280;64136;53.118;17.996;2023-04-01T05:50:53;99129.02;;;7.32;85.10
75553;BME280;64136;53.118;17.996;2023-04-01T05:53:20;99132.70;;;7.37;84.80
75553;BME280;64136;53.118;17.996;2023-04-01T05:55:46;99138.55;;;7.38;84.58
75553;BME280;64136;53.118;17.996;2023-04-01T05:58:13;99139.70;;;7.42;84.35
75553;BME280;64136;53.118;17.996;2023-04-01T06:00:40;99142.88;;;7.44;83.92
75553;BME280;64136;53.118;17.996;2023-04-01T06:03:06;99146.52;;;7.47;83.62
75553;BME280;64136;53.118;17.996;2023-04-01T06:05:43;99148.65;;;7.47;83.06
75553;BME280;64136;53.118;17.996;2023-04-01T06:08:13;99149.59;;;7.44;82.97
75553;BME280;64136;53.118;17.996;2023-04-01T06:11:03;99154.19;;;7.49;83.15
75553;BME280;64136;53.118;17.996;2023-04-01T06:16:44;99154.70;;;7.49;82.55
75553;BME280;64136;53.118;17.996;2023-04-01T06:19:27;99155.13;;;7.57;82.78
75553;BME280;64136;53.118;17.996;2023-04-01T06:22:17;99158.81;;;7.64;82.87
75553;BME280;64136;53.118;17.996;2023-04-01T06:25:05;99157.48;;;7.65;81.87
75553;BME280;64136;53.118;17.996;2023-04-01T06:27:57;99166.37;;;7.67;81.72
75553;BME280;64136;53.118;17.996;2023-04-01T06:30:35;99167.25;;;7.66;81.56
75553;BME280;64136;53.118;17.996;2023-04-01T06:36:08;99173.60;;;7.66;81.50
75553;BME280;64136;53.118;17.996;2023-04-01T06:38:45;99174.23;;;7.73;81.22
75553;BME280;64136;53.118;17.996;2023-04-01T06:46:59;99180.82;;;7.76;80.52
75553;BME280;64136;53.118;17.996;2023-04-01T06:56:08;99189.77;;;7.86;80.41
75553;BME280;64136;53.118;17.996;2023-04-01T07:01:18;99191.67;;;7.65;80.21
75553;BME280;64136;53.118;17.996;2023-04-01T07:03:53;99194.97;;;7.71;80.31
75553;BME280;64136;53.118;17.996;2023-04-01T07:09:18;99200.28;;;7.87;79.76
75553;BME280;64136;53.118;17.996;2023-04-01T07:11:56;99206.77;;;7.96;79.62
75553;BME280;64136;53.118;17.996;2023-04-01T07:14:35;99211.48;;;8.02;79.68
75553;BME280;64136;53.118;17.996;2023-04-01T07:17:16;99214.10;;;8.06;79.58
75553;BME280;64136;53.118;17.996;2023-04-01T07:20:03;99217.88;;;7.96;79.42
75553;BME280;64136;53.118;17.996;2023-04-01T07:22:41;99217.88;;;8.03;79.19
75553;BME280;64136;53.118;17.996;2023-04-01T07:25:24;99218.16;;;8.04;79.01
75553;BME280;64136;53.118;17.996;2023-04-01T07:28:05;99217.16;;;8.06;78.70
75553;BME280;64136;53.118;17.996;2023-04-01T07:30:44;99219.55;;;8.09;78.93
75553;BME280;64136;53.118;17.996;2023-04-01T07:33:19;99219.88;;;8.05;79.22
75553;BME280;64136;53.118;17.996;2023-04-01T07:39:04;99224.70;;;8.22;78.42
75553;BME280;64136;53.118;17.996;2023-04-01T07:42:04;99230.50;;;8.29;77.88
75553;BME280;64136;53.118;17.996;2023-04-01T07:44:48;99234.91;;;8.25;77.61
75553;BME280;64136;53.118;17.996;2023-04-01T07:53:01;99249.44;;;8.38;78.00
75553;BME280;64136;53.118;17.996;2023-04-01T07:55:45;99250.41;;;8.39;78.19
75553;BME280;64136;53.118;17.996;2023-04-01T07:58:30;99253.11;;;8.45;78.11
75553;BME280;64136;53.118;17.996;2023-04-01T08:01:11;99256.54;;;8.56;77.87
75553;BME280;64136;53.118;17.996;2023-04-01T08:04:00;99259.27;;;8.59;77.72
75553;BME280;64136;53.118;17.996;2023-04-01T08:06:40;99262.95;;;8.41;77.68
75553;BME280;64136;53.118;17.996;2023-04-01T08:09:30;99267.02;;;8.36;78.41
75553;BME280;64136;53.118;17.996;2023-04-01T08:12:23;99271.23;;;8.18;78.60
75553;BME280;64136;53.118;17.996;2023-04-01T08:17:56;99287.48;;;7.97;78.63
75553;BME280;64136;53.118;17.996;2023-04-01T08:20:34;99290.43;;;7.88;78.13
75553;BME280;64136;53.118;17.996;2023-04-01T08:26:10;99299.41;;;7.86;78.16
75553;BME280;64136;53.118;17.996;2023-04-01T08:28:51;99305.45;;;7.85;78.16
75553;BME280;64136;53.118;17.996;2023-04-01T08:31:36;99304.08;;;7.94;78.56
75553;BME280;64136;53.118;17.996;2023-04-01T08:34:10;99305.43;;;8.04;78.54
75553;BME280;64136;53.118;17.996;2023-04-01T08:36:51;99308.47;;;8.13;78.16
75553;BME280;64136;53.118;17.996;2023-04-01T08:39:29;99308.92;;;8.12;77.79
75553;BME280;64136;53.118;17.996;2023-04-01T08:42:30;99311.77;;;8.09;77.78
75553;BME280;64136;53.118;17.996;2023-04-01T08:45:23;99312.19;;;8.13;76.86
75553;BME280;64136;53.118;17.996;2023-04-01T08:48:07;99316.92;;;8.06;76.82
75553;BME280;64136;53.118;17.996;2023-04-01T08:53:50;99319.07;;;8.39;75.92
75553;BME280;64136;53.118;17.996;2023-04-01T08:56:25;99324.05;;;8.64;75.81
75553;BME280;64136;53.118;17.996;2023-04-01T09:10:53;99339.52;;;8.67;74.82
75553;BME280;64136;53.118;17.996;2023-04-01T09:13:37;99337.50;;;8.81;74.51
75553;BME280;64136;53.118;17.996;2023-04-01T09:16:23;99336.60;;;8.79;73.67
75553;BME280;64136;53.118;17.996;2023-04-01T09:27:28;99346.64;;;8.73;75.03
75553;BME280;64136;53.118;17.996;2023-04-01T09:30:12;99351.64;;;8.54;75.10
75553;BME280;64136;53.118;17.996;2023-04-01T09:36:03;99358.13;;;8.91;74.51
75553;BME280;64136;53.118;17.996;2023-04-01T09:38:42;99361.55;;;8.94;73.95
75553;BME280;64136;53.118;17.996;2023-04-01T09:41:31;99367.91;;;8.62;73.61
75553;BME280;64136;53.118;17.996;2023-04-01T09:47:23;99376.83;;;8.77;74.80
75553;BME280;64136;53.118;17.996;2023-04-01T09:50:17;99376.69;;;8.74;74.76
75553;BME280;64136;53.118;17.996;2023-04-01T09:53:07;99384.96;;;8.91;74.72
75553;BME280;64136;53.118;17.996;2023-04-01T10:05:13;99393.16;;;9.03;73.45
75553;BME280;64136;53.118;17.996;2023-04-01T10:07:53;99397.77;;;8.73;73.59
75553;BME280;64136;53.118;17.996;2023-04-01T10:12:21;99402.48;;;8.63;73.84
75553;BME280;64136;53.118;17.996;2023-04-01T10:13:37;99406.35;;;8.58;73.63
75553;BME280;64136;53.118;17.996;2023-04-01T10:19:55;99409.56;;;9.15;72.20
75553;BME280;64136;53.118;17.996;2023-04-01T10:25:01;99410.13;;;9.26;72.20
75553;BME280;64136;53.118;17.996;2023-04-01T10:33:58;99412.20;;;9.15;72.15
75553;BME280;64136;53.118;17.996;2023-04-01T10:39:52;99419.45;;;8.93;73.22
75553;BME280;64136;53.118;17.996;2023-04-01T10:45:56;99420.45;;;9.07;72.90
75553;BME280;64136;53.118;17.996;2023-04-01T10:48:52;99420.95;;;9.23;71.56
75553;BME280;64136;53.118;17.996;2023-04-01T10:57:48;99425.61;;;9.58;70.00
75553;BME280;64136;53.118;17.996;2023-04-01T11:03:46;99428.89;;;9.81;70.36
75553;BME280;64136;53.118;17.996;2023-04-01T11:06:55;99431.60;;;9.76;70.69
75553;BME280;64136;53.118;17.996;2023-04-01T11:09:55;99436.45;;;9.30;70.94
75553;BME280;64136;53.118;17.996;2023-04-01T11:15:48;99443.08;;;9.23;71.21
75553;BME280;64136;53.118;17.996;2023-04-01T11:21:46;99449.55;;;9.55;70.10
75553;BME280;64136;53.118;17.996;2023-04-01T11:27:26;99455.98;;;9.65;70.22
75553;BME280;64136;53.118;17.996;2023-04-01T11:30:20;99460.31;;;9.62;70.23
75553;BME280;64136;53.118;17.996;2023-04-01T11:32:56;99462.92;;;9.54;70.40
75553;BME280;64136;53.118;17.996;2023-04-01T11:38:32;99474.88;;;9.50;70.49
75553;BME280;64136;53.118;17.996;2023-04-01T11:44:20;99484.09;;;8.88;72.33
75553;BME280;64136;53.118;17.996;2023-04-01T11:47:18;99485.61;;;8.84;72.56
75553;BME280;64136;53.118;17.996;2023-04-01T11:55:42;99492.91;;;8.90;71.94
75553;BME280;64136;53.118;17.996;2023-04-01T12:01:20;99496.05;;;9.00;71.25
75553;BME280;64136;53.118;17.996;2023-04-01T12:04:12;99498.68;;;8.86;71.41
75553;BME280;64136;53.118;17.996;2023-04-01T12:06:59;99503.98;;;8.81;71.96
75553;BME280;64136;53.118;17.996;2023-04-01T12:09:47;99507.27;;;8.73;72.53
75553;BME280;64136;53.118;17.996;2023-04-01T12:12:32;99508.24;;;8.69;72.55
75553;BME280;64136;53.118;17.996;2023-04-01T12:15:20;99512.77;;;8.75;72.25
75553;BME280;64136;53.118;17.996;2023-04-01T12:18:01;99518.77;;;8.37;73.07
75553;BME280;64136;53.118;17.996;2023-04-01T12:20:43;99520.25;;;8.38;72.93
75553;BME280;64136;53.118;17.996;2023-04-01T12:29:47;99534.59;;;8.90;71.65
75553;BME280;64136;53.118;17.996;2023-04-01T12:32:03;99538.52;;;9.08;70.60
75553;BME280;64136;53.118;17.996;2023-04-01T12:37:35;99544.06;;;9.10;70.90
75553;BME280;64136;53.118;17.996;2023-04-01T12:40:20;99542.76;;;9.06;70.35
75553;BME280;64136;53.118;17.996;2023-04-01T12:43:13;99546.70;;;9.00;70.92
75553;BME280;64136;53.118;17.996;2023-04-01T12:45:55;99548.20;;;9.13;70.13
75553;BME280;64136;53.118;17.996;2023-04-01T12:51:30;99549.20;;;9.33;69.54
75553;BME280;64136;53.118;17.996;2023-04-01T12:54:20;99556.80;;;9.48;69.62
75553;BME280;64136;53.118;17.996;2023-04-01T12:57:17;99558.84;;;9.36;67.93
75553;BME280;64136;53.118;17.996;2023-04-01T12:59:58;99564.70;;;9.61;68.15
75553;BME280;64136;53.118;17.996;2023-04-01T13:02:49;99570.25;;;9.21;68.30
75553;BME280;64136;53.118;17.996;2023-04-01T13:05:36;99570.91;;;9.24;68.57
75553;BME280;64136;53.118;17.996;2023-04-01T13:08:23;99574.73;;;9.36;68.23
75553;BME280;64136;53.118;17.996;2023-04-01T13:16:29;99583.92;;;9.73;67.07
75553;BME280;64136;53.118;17.996;2023-04-01T13:22:00;99592.77;;;9.57;67.26
75553;BME280;64136;53.118;17.996;2023-04-01T13:24:42;99595.11;;;9.38;67.36
75553;BME280;64136;53.118;17.996;2023-04-01T13:27:18;99597.73;;;9.26;67.83
75553;BME280;64136;53.118;17.996;2023-04-01T13:32:49;99599.39;;;9.02;68.68
75553;BME280;64136;53.118;17.996;2023-04-01T13:35:29;99602.77;;;9.06;68.71
75553;BME280;64136;53.118;17.996;2023-04-01T13:38:31;99604.42;;;9.13;68.15
75553;BME280;64136;53.118;17.996;2023-04-01T13:44:01;99615.17;;;8.75;68.69
75553;BME280;64136;53.118;17.996;2023-04-01T13:47:24;99612.98;;;8.78;68.99
75553;BME280;64136;53.118;17.996;2023-04-01T13:49:48;99622.67;;;8.49;69.23
75553;BME280;64136;53.118;17.996;2023-04-01T13:55:30;99635.31;;;8.33;70.05
75553;BME280;64136;53.118;17.996;2023-04-01T13:58:17;99636.10;;;8.19;70.30
75553;BME280;64136;53.118;17.996;2023-04-01T14:00:55;99639.33;;;8.26;70.34
75553;BME280;64136;53.118;17.996;2023-04-01T14:03:28;99645.89;;;8.22;70.28
75553;BME280;64136;53.118;17.996;2023-04-01T14:06:05;99651.27;;;8.21;70.31
75553;BME280;64136;53.118;17.996;2023-04-01T14:08:47;99653.45;;;8.36;70.39
75553;BME280;64136;53.118;17.996;2023-04-01T14:12:06;99655.13;;;8.27;70.13
75553;BME280;64136;53.118;17.996;2023-04-01T14:20:20;99660.35;;;8.25;70.33
75553;BME280;64136;53.118;17.996;2023-04-01T14:30:39;99669.11;;;8.06;70.19
75553;BME280;64136;53.118;17.996;2023-04-01T14:36:28;99678.50;;;8.00;70.25
75553;BME280;64136;53.118;17.996;2023-04-01T14:39:39;99682.77;;;8.02;70.37
75553;BME280;64136;53.118;17.996;2023-04-01T14:47:54;99691.09;;;8.09;70.52
75553;BME280;64136;53.118;17.996;2023-04-01T14:50:28;99695.33;;;8.07;70.31
75553;BME280;64136;53.118;17.996;2023-04-01T14:55:53;99705.08;;;7.85;69.64
75553;BME280;64136;53.118;17.996;2023-04-01T14:58:22;99705.83;;;7.61;70.24
75553;BME280;64136;53.118;17.996;2023-04-01T15:06:45;99719.77;;;7.26;71.38
75553;BME280;64136;53.118;17.996;2023-04-01T15:09:35;99725.84;;;7.31;70.96
75553;BME280;64136;53.118;17.996;2023-04-01T15:12:30;99726.95;;;7.32;70.69
75553;BME280;64136;53.118;17.996;2023-04-01T15:21:02;99742.92;;;7.22;70.87
75553;BME280;64136;53.118;17.996;2023-04-01T15:23:55;99745.86;;;7.04;71.22
75553;BME280;64136;53.118;17.996;2023-04-01T15:26:47;99748.83;;;6.88;72.08
75553;BME280;64136;53.118;17.996;2023-04-01T15:29:34;99755.88;;;6.93;72.08
75553;BME280;64136;53.118;17.996;2023-04-01T15:35:03;99771.30;;;6.92;72.09
75553;BME280;64136;53.118;17.996;2023-04-01T15:37:56;99775.71;;;6.92;71.86
75553;BME280;64136;53.118;17.996;2023-04-01T15:46:22;99789.04;;;6.87;71.72
75553;BME280;64136;53.118;17.996;2023-04-01T15:49:10;99790.83;;;6.86;72.23
75553;BME280;64136;53.118;17.996;2023-04-01T15:57:13;99800.77;;;6.62;72.61
75553;BME280;64136;53.118;17.996;2023-04-01T16:05:42;99814.23;;;6.26;73.49
75553;BME280;64136;53.118;17.996;2023-04-01T16:11:04;99819.39;;;6.19;74.29
75553;BME280;64136;53.118;17.996;2023-04-01T16:22:13;99841.77;;;6.21;73.50
75553;BME280;64136;53.118;17.996;2023-04-01T16:24:50;99848.05;;;6.13;72.50
75553;BME280;64136;53.118;17.996;2023-04-01T16:27:35;99848.45;;;6.15;72.58
75553;BME280;64136;53.118;17.996;2023-04-01T16:33:10;99862.76;;;6.11;72.07
75553;BME280;64136;53.118;17.996;2023-04-01T16:38:39;99872.38;;;6.00;72.59
75553;BME280;64136;53.118;17.996;2023-04-01T16:41:27;99875.30;;;5.94;72.72
75553;BME280;64136;53.118;17.996;2023-04-01T16:44:10;99881.03;;;5.86;72.84
75553;BME280;64136;53.118;17.996;2023-04-01T16:46:40;99888.97;;;5.89;73.07
75553;BME280;64136;53.118;17.996;2023-04-01T16:49:29;99894.12;;;5.91;72.94
75553;BME280;64136;53.118;17.996;2023-04-01T16:52:17;99897.13;;;5.75;73.41
75553;BME280;64136;53.118;17.996;2023-04-01T16:55:03;99905.86;;;5.66;73.93
75553;BME280;64136;53.118;17.996;2023-04-01T16:57:51;99907.80;;;5.73;74.14
75553;BME280;64136;53.118;17.996;2023-04-01T17:00:37;99912.64;;;5.68;74.32
75553;BME280;64136;53.118;17.996;2023-04-01T17:08:55;99924.85;;;5.50;73.52
75553;BME280;64136;53.118;17.996;2023-04-01T17:11:30;99933.65;;;5.50;73.08
75553;BME280;64136;53.118;17.996;2023-04-01T17:19:54;99939.98;;;5.30;72.92
75553;BME280;64136;53.118;17.996;2023-04-01T17:22:37;99943.10;;;5.17;73.13
75553;BME280;64136;53.118;17.996;2023-04-01T17:28:10;99947.48;;;5.08;73.76
75553;BME280;64136;53.118;17.996;2023-04-01T17:33:50;99960.42;;;5.12;72.94
75553;BME280;64136;53.118;17.996;2023-04-01T17:39:31;99969.44;;;5.01;72.91
75553;BME280;64136;53.118;17.996;2023-04-01T17:42:11;99975.08;;;5.04;73.31
75553;BME280;64136;53.118;17.996;2023-04-01T17:44:57;99980.98;;;4.92;73.57
75553;BME280;64136;53.118;17.996;2023-04-01T17:47:47;99986.08;;;4.91;73.92
75553;BME280;64136;53.118;17.996;2023-04-01T17:53:15;99996.36;;;4.86;74.36
75553;BME280;64136;53.118;17.996;2023-04-01T18:01:36;100011.45;;;4.62;76.03
75553;BME280;64136;53.118;17.996;2023-04-01T18:04:23;100011.35;;;4.53;76.37
75553;BME280;64136;53.118;17.996;2023-04-01T18:15:42;100027.84;;;4.46;77.30
75553;BME280;64136;53.118;17.996;2023-04-01T18:23:58;100044.89;;;4.45;77.84
75553;BME280;64136;53.118;17.996;2023-04-01T18:26:37;100046.52;;;4.44;78.00
75553;BME280;64136;53.118;17.996;2023-04-01T18:29:13;100056.42;;;4.53;78.05
75553;BME280;64136;53.118;17.996;2023-04-01T18:31:51;100059.65;;;4.55;77.31
75553;BME280;64136;53.118;17.996;2023-04-01T18:37:27;100063.83;;;4.63;76.89
75553;BME280;64136;53.118;17.996;2023-04-01T18:40:10;100069.98;;;4.51;77.30
75553;BME280;64136;53.118;17.996;2023-04-01T18:43:02;100068.63;;;4.55;77.28
75553;BME280;64136;53.118;17.996;2023-04-01T18:45:35;100072.96;;;4.55;78.01
75553;BME280;64136;53.118;17.996;2023-04-01T18:50:59;100083.71;;;4.28;79.09
75553;BME280;64136;53.118;17.996;2023-04-01T18:53:39;100087.54;;;4.26;79.36
75553;BME280;64136;53.118;17.996;2023-04-01T18:56:11;100091.36;;;4.19;79.62
75553;BME280;64136;53.118;17.996;2023-04-01T18:58:48;100094.06;;;4.14;79.28
75553;BME280;64136;53.118;17.996;2023-04-01T19:01:28;100097.69;;;4.07;79.61
75553;BME280;64136;53.118;17.996;2023-04-01T19:06:50;100106.04;;;4.16;79.08
75553;BME280;64136;53.118;17.996;2023-04-01T19:09:24;100104.40;;;4.14;79.21
75553;BME280;64136;53.118;17.996;2023-04-01T19:12:03;100108.67;;;4.13;79.38
75553;BME280;64136;53.118;17.996;2023-04-01T19:20:24;100124.70;;;4.07;79.74